sensor_id;sensor_type;location;lat;lon;timestamp;P1;durP1;ratioP1;P2;durP2;ratioP2
45893;SDS011;31603;51.148;16.932;2023-02-28T00:00:40;136.38;;;53.72;;
45893;SDS011;31603;51.148;16.932;2023-02-28T00:03:09;107.18;;;43.17;;
45893;SDS011;31603;51.148;16.932;2023-02-28T00:06:12;75.00;;;29.95;;
45893;SDS011;31603;51.148;16.932;2023-02-28T00:08:41;59.15;;;25.92;;
45893;SDS011;31603;51.148;16.932;2023-02-28T00:11:10;61.35;;;26.40;;
45893;SDS011;31603;51.148;16.932;2023-02-28T00:13:39;54.92;;;24.17;;
45893;SDS011;31603;51.148;16.932;2023-02-28T00:16:11;62.53;;;27.30;;
45893;SDS011;31603;51.148;16.932;2023-02-28T00:18:42;81.15;;;35.35;;
45893;SDS011;31603;51.148;16.932;2023-02-28T00:21:13;88.72;;;38.55;;
45893;SDS011;31603;51.148;16.932;2023-02-28T00:23:40;80.75;;;32.97;;
45893;SDS011;31603;51.148;16.932;2023-02-28T00:26:12;103.65;;;44.53;;
45893;SDS011;31603;51.148;16.932;2023-02-28T00:28:38;101.38;;;41.25;;
45893;SDS011;31603;51.148;16.932;2023-02-28T00:31:19;77.60;;;32.60;;
45893;SDS011;31603;51.148;16.932;2023-02-28T00:33:49;105.47;;;43.90;;
45893;SDS011;31603;51.148;16.932;2023-02-28T00:36:31;110.90;;;49.58;;
45893;SDS011;31603;51.148;16.932;2023-02-28T00:38:57;100.65;;;42.90;;
45893;SDS011;31603;51.148;16.932;2023-02-28T00:41:24;86.65;;;37.92;;
45893;SDS011;31603;51.148;16.932;2023-02-28T00:43:50;76.20;;;35.38;;
45893;SDS011;31603;51.148;16.932;2023-02-28T00:46:19;76.60;;;33.20;;
45893;SDS011;31603;51.148;16.932;2023-02-28T00:48:46;72.80;;;33.13;;
45893;SDS011;31603;51.148;16.932;2023-02-28T00:51:13;73.90;;;33.78;;
45893;SDS011;31603;51.148;16.932;2023-02-28T00:53:41;79.85;;;35.90;;
45893;SDS011;31603;51.148;16.932;2023-02-28T00:56:07;87.15;;;37.38;;
45893;SDS011;31603;51.148;16.932;2023-02-28T00:58:34;76.43;;;32.80;;
45893;SDS011;31603;51.148;16.932;2023-02-28T01:01:01;74.25;;;32.33;;
45893;SDS011;31603;51.148;16.932;2023-02-28T01:03:27;98.50;;;43.22;;
45893;SDS011;31603;51.148;16.932;2023-02-28T01:05:54;101.43;;;43.63;;
45893;SDS011;31603;51.148;16.932;2023-02-28T01:08:20;110.57;;;47.90;;
45893;SDS011;31603;51.148;16.932;2023-02-28T01:10:48;87.15;;;39.00;;
45893;SDS011;31603;51.148;16.932;2023-02-28T01:13:15;80.03;;;35.88;;
45893;SDS011;31603;51.148;16.932;2023-02-28T01:15:43;67.82;;;32.15;;
45893;SDS011;31603;51.148;16.932;2023-02-28T01:18:14;60.80;;;28.67;;
45893;SDS011;31603;51.148;16.932;2023-02-28T01:20:41;64.38;;;27.05;;
45893;SDS011;31603;51.148;16.932;2023-02-28T01:23:08;60.70;;;27.73;;
45893;SDS011;31603;51.148;16.932;2023-02-28T01:25:35;63.33;;;28.17;;
45893;SDS011;31603;51.148;16.932;2023-02-28T01:28:10;67.65;;;30.33;;
45893;SDS011;31603;51.148;16.932;2023-02-28T01:30:37;67.07;;;30.83;;
45893;SDS011;31603;51.148;16.932;2023-02-28T01:33:03;65.85;;;29.13;;
45893;SDS011;31603;51.148;16.932;2023-02-28T01:35:32;66.18;;;29.90;;
45893;SDS011;31603;51.148;16.932;2023-02-28T01:38:00;62.47;;;27.92;;
45893;SDS011;31603;51.148;16.932;2023-02-28T01:40:27;77.05;;;33.72;;
45893;SDS011;31603;51.148;16.932;2023-02-28T01:42:53;83.05;;;35.72;;
45893;SDS011;31603;51.148;16.932;2023-02-28T01:45:23;93.45;;;37.58;;
45893;SDS011;31603;51.148;16.932;2023-02-28T01:47:54;83.18;;;37.55;;
45893;SDS011;31603;51.148;16.932;2023-02-28T01:50:25;71.25;;;33.38;;
45893;SDS011;31603;51.148;16.932;2023-02-28T01:52:56;72.40;;;31.15;;
45893;SDS011;31603;51.148;16.932;2023-02-28T01:55:27;63.33;;;28.48;;
45893;SDS011;31603;51.148;16.932;2023-02-28T01:57:55;61.80;;;26.67;;
45893;SDS011;31603;51.148;16.932;2023-02-28T02:00:26;64.80;;;29.70;;
45893;SDS011;31603;51.148;16.932;2023-02-28T02:02:58;56.20;;;24.98;;
45893;SDS011;31603;51.148;16.932;2023-02-28T02:05:29;52.15;;;24.40;;
45893;SDS011;31603;51.148;16.932;2023-02-28T02:07:57;52.75;;;24.50;;
45893;SDS011;31603;51.148;16.932;2023-02-28T02:10:29;54.15;;;23.95;;
45893;SDS011;31603;51.148;16.932;2023-02-28T02:13:02;60.15;;;26.73;;
45893;SDS011;31603;51.148;16.932;2023-02-28T02:15:40;60.33;;;30.90;;
45893;SDS011;31603;51.148;16.932;2023-02-28T02:18:13;58.42;;;28.10;;
45893;SDS011;31603;51.148;16.932;2023-02-28T02:24:31;61.60;;;26.02;;
45893;SDS011;31603;51.148;16.932;2023-02-28T02:27:23;58.80;;;25.55;;
45893;SDS011;31603;51.148;16.932;2023-02-28T02:33:13;60.92;;;25.38;;
45893;SDS011;31603;51.148;16.932;2023-02-28T02:35:55;56.85;;;26.17;;
45893;SDS011;31603;51.148;16.932;2023-02-28T02:38:29;55.25;;;25.25;;
45893;SDS011;31603;51.148;16.932;2023-02-28T02:41:02;57.35;;;27.35;;
45893;SDS011;31603;51.148;16.932;2023-02-28T02:43:39;53.72;;;23.92;;
45893;SDS011;31603;51.148;16.932;2023-02-28T02:46:12;52.33;;;24.75;;
45893;SDS011;31603;51.148;16.932;2023-02-28T02:48:42;57.40;;;25.35;;
45893;SDS011;31603;51.148;16.932;2023-02-28T02:51:14;55.80;;;24.70;;
45893;SDS011;31603;51.148;16.932;2023-02-28T02:53:44;58.23;;;25.23;;
45893;SDS011;31603;51.148;16.932;2023-02-28T02:56:15;52.83;;;23.52;;
45893;SDS011;31603;51.148;16.932;2023-02-28T02:58:43;60.20;;;27.77;;
45893;SDS011;31603;51.148;16.932;2023-02-28T03:01:14;57.03;;;26.80;;
45893;SDS011;31603;51.148;16.932;2023-02-28T03:03:52;49.30;;;24.10;;
45893;SDS011;31603;51.148;16.932;2023-02-28T03:06:21;51.97;;;23.17;;
45893;SDS011;31603;51.148;16.932;2023-02-28T03:08:48;53.03;;;24.65;;
45893;SDS011;31603;51.148;16.932;2023-02-28T03:11:14;54.03;;;24.83;;
45893;SDS011;31603;51.148;16.932;2023-02-28T03:16:40;58.67;;;24.95;;
45893;SDS011;31603;51.148;16.932;2023-02-28T03:19:24;53.67;;;24.70;;
45893;SDS011;31603;51.148;16.932;2023-02-28T03:22:01;58.30;;;24.95;;
45893;SDS011;31603;51.148;16.932;2023-02-28T03:25:05;53.75;;;25.00;;
45893;SDS011;31603;51.148;16.932;2023-02-28T03:27:36;64.25;;;30.25;;
45893;SDS011;31603;51.148;16.932;2023-02-28T03:30:10;59.20;;;28.20;;
45893;SDS011;31603;51.148;16.932;2023-02-28T03:32:48;56.75;;;25.63;;
45893;SDS011;31603;51.148;16.932;2023-02-28T03:35:20;52.28;;;24.80;;
45893;SDS011;31603;51.148;16.932;2023-02-28T03:37:52;53.65;;;25.08;;
45893;SDS011;31603;51.148;16.932;2023-02-28T03:40:22;56.90;;;26.10;;
45893;SDS011;31603;51.148;16.932;2023-02-28T03:45:24;54.00;;;23.77;;
45893;SDS011;31603;51.148;16.932;2023-02-28T03:47:53;55.50;;;23.70;;
45893;SDS011;31603;51.148;16.932;2023-02-28T03:50:22;58.53;;;25.67;;
45893;SDS011;31603;51.148;16.932;2023-02-28T03:52:57;59.00;;;27.80;;
45893;SDS011;31603;51.148;16.932;2023-02-28T03:55:30;56.78;;;24.23;;
45893;SDS011;31603;51.148;16.932;2023-02-28T03:58:01;52.33;;;24.92;;
45893;SDS011;31603;51.148;16.932;2023-02-28T04:00:34;59.10;;;24.85;;
45893;SDS011;31603;51.148;16.932;2023-02-28T04:03:04;53.03;;;24.98;;
45893;SDS011;31603;51.148;16.932;2023-02-28T04:05:32;58.60;;;26.33;;
45893;SDS011;31603;51.148;16.932;2023-02-28T04:08:12;63.40;;;28.95;;
45893;SDS011;31603;51.148;16.932;2023-02-28T04:10:39;59.90;;;26.98;;
45893;SDS011;31603;51.148;16.932;2023-02-28T04:13:08;56.05;;;24.88;;
45893;SDS011;31603;51.148;16.932;2023-02-28T04:15:35;59.35;;;27.25;;
45893;SDS011;31603;51.148;16.932;2023-02-28T04:18:01;58.00;;;27.02;;
45893;SDS011;31603;51.148;16.932;2023-02-28T04:20:36;57.72;;;27.23;;
45893;SDS011;31603;51.148;16.932;2023-02-28T04:23:02;59.75;;;26.58;;
45893;SDS011;31603;51.148;16.932;2023-02-28T04:25:30;53.85;;;24.25;;
45893;SDS011;31603;51.148;16.932;2023-02-28T04:27:57;53.38;;;25.60;;
45893;SDS011;31603;51.148;16.932;2023-02-28T04:30:25;57.42;;;25.63;;
45893;SDS011;31603;51.148;16.932;2023-02-28T04:32:51;57.42;;;28.05;;
45893;SDS011;31603;51.148;16.932;2023-02-28T04:35:19;51.30;;;24.63;;
45893;SDS011;31603;51.148;16.932;2023-02-28T04:37:45;54.83;;;24.70;;
45893;SDS011;31603;51.148;16.932;2023-02-28T04:40:12;50.67;;;24.77;;
45893;SDS011;31603;51.148;16.932;2023-02-28T04:42:40;52.15;;;24.35;;
45893;SDS011;31603;51.148;16.932;2023-02-28T04:45:07;38.40;;;17.33;;
45893;SDS011;31603;51.148;16.932;2023-02-28T04:47:36;51.35;;;22.50;;
45893;SDS011;31603;51.148;16.932;2023-02-28T04:50:02;55.28;;;24.00;;
45893;SDS011;31603;51.148;16.932;2023-02-28T04:52:30;48.75;;;22.13;;
45893;SDS011;31603;51.148;16.932;2023-02-28T04:54:57;50.38;;;23.55;;
45893;SDS011;31603;51.148;16.932;2023-02-28T04:57:24;58.13;;;24.73;;
45893;SDS011;31603;51.148;16.932;2023-02-28T04:59:52;51.75;;;22.98;;
45893;SDS011;31603;51.148;16.932;2023-02-28T05:02:33;49.92;;;21.70;;
45893;SDS011;31603;51.148;16.932;2023-02-28T05:05:00;58.30;;;28.15;;
45893;SDS011;31603;51.148;16.932;2023-02-28T05:07:26;61.63;;;28.38;;
45893;SDS011;31603;51.148;16.932;2023-02-28T05:09:53;56.75;;;27.20;;
45893;SDS011;31603;51.148;16.932;2023-02-28T05:12:23;53.60;;;24.30;;
45893;SDS011;31603;51.148;16.932;2023-02-28T05:14:49;61.47;;;26.48;;
45893;SDS011;31603;51.148;16.932;2023-02-28T05:17:18;60.05;;;26.70;;
45893;SDS011;31603;51.148;16.932;2023-02-28T05:19:44;51.47;;;23.52;;
45893;SDS011;31603;51.148;16.932;2023-02-28T05:22:14;45.70;;;21.40;;
45893;SDS011;31603;51.148;16.932;2023-02-28T05:24:42;44.17;;;20.58;;
45893;SDS011;31603;51.148;16.932;2023-02-28T05:27:08;57.50;;;25.95;;
45893;SDS011;31603;51.148;16.932;2023-02-28T05:29:35;52.70;;;24.73;;
45893;SDS011;31603;51.148;16.932;2023-02-28T05:32:08;54.63;;;23.97;;
45893;SDS011;31603;51.148;16.932;2023-02-28T05:34:35;56.38;;;23.90;;
45893;SDS011;31603;51.148;16.932;2023-02-28T05:37:02;51.60;;;24.80;;
45893;SDS011;31603;51.148;16.932;2023-02-28T05:39:29;69.90;;;30.15;;
45893;SDS011;31603;51.148;16.932;2023-02-28T05:41:56;64.60;;;27.67;;
45893;SDS011;31603;51.148;16.932;2023-02-28T05:44:23;54.55;;;23.63;;
45893;SDS011;31603;51.148;16.932;2023-02-28T05:46:49;54.17;;;24.23;;
45893;SDS011;31603;51.148;16.932;2023-02-28T05:49:17;52.97;;;22.60;;
45893;SDS011;31603;51.148;16.932;2023-02-28T05:51:44;56.85;;;23.45;;
45893;SDS011;31603;51.148;16.932;2023-02-28T05:54:10;55.95;;;25.70;;
45893;SDS011;31603;51.148;16.932;2023-02-28T05:56:37;47.22;;;23.75;;
45893;SDS011;31603;51.148;16.932;2023-02-28T05:59:04;56.83;;;22.83;;
45893;SDS011;31603;51.148;16.932;2023-02-28T06:01:34;46.33;;;22.85;;
45893;SDS011;31603;51.148;16.932;2023-02-28T06:04:03;51.08;;;23.35;;
45893;SDS011;31603;51.148;16.932;2023-02-28T06:06:32;57.70;;;28.15;;
45893;SDS011;31603;51.148;16.932;2023-02-28T06:09:01;104.90;;;42.85;;
45893;SDS011;31603;51.148;16.932;2023-02-28T06:11:28;76.20;;;34.25;;
45893;SDS011;31603;51.148;16.932;2023-02-28T06:13:54;70.72;;;31.67;;
45893;SDS011;31603;51.148;16.932;2023-02-28T06:16:22;59.75;;;26.38;;
45893;SDS011;31603;51.148;16.932;2023-02-28T06:18:49;52.60;;;26.05;;
45893;SDS011;31603;51.148;16.932;2023-02-28T06:21:17;58.78;;;25.05;;
45893;SDS011;31603;51.148;16.932;2023-02-28T06:23:45;43.53;;;20.33;;
45893;SDS011;31603;51.148;16.932;2023-02-28T06:26:12;49.88;;;23.50;;
45893;SDS011;31603;51.148;16.932;2023-02-28T06:28:39;56.00;;;25.60;;
45893;SDS011;31603;51.148;16.932;2023-02-28T06:31:06;57.75;;;26.50;;
45893;SDS011;31603;51.148;16.932;2023-02-28T06:33:35;50.28;;;21.02;;
45893;SDS011;31603;51.148;16.932;2023-02-28T06:36:02;83.90;;;39.65;;
45893;SDS011;31603;51.148;16.932;2023-02-28T06:38:30;61.03;;;28.92;;
45893;SDS011;31603;51.148;16.932;2023-02-28T06:41:00;64.97;;;26.63;;
45893;SDS011;31603;51.148;16.932;2023-02-28T06:43:27;57.35;;;25.73;;
45893;SDS011;31603;51.148;16.932;2023-02-28T06:45:56;50.15;;;23.40;;
45893;SDS011;31603;51.148;16.932;2023-02-28T06:48:24;54.75;;;25.05;;
45893;SDS011;31603;51.148;16.932;2023-02-28T06:50:52;48.15;;;21.45;;
45893;SDS011;31603;51.148;16.932;2023-02-28T06:53:19;46.03;;;21.75;;
45893;SDS011;31603;51.148;16.932;2023-02-28T06:55:46;47.47;;;22.63;;
45893;SDS011;31603;51.148;16.932;2023-02-28T06:58:13;50.63;;;23.33;;
45893;SDS011;31603;51.148;16.932;2023-02-28T07:00:40;52.25;;;22.40;;
45893;SDS011;31603;51.148;16.932;2023-02-28T07:03:09;44.83;;;20.88;;
45893;SDS011;31603;51.148;16.932;2023-02-28T07:05:36;46.25;;;21.05;;
45893;SDS011;31603;51.148;16.932;2023-02-28T07:08:03;43.60;;;19.38;;
45893;SDS011;31603;51.148;16.932;2023-02-28T07:10:30;42.40;;;19.23;;
45893;SDS011;31603;51.148;16.932;2023-02-28T07:12:59;37.63;;;17.77;;
45893;SDS011;31603;51.148;16.932;2023-02-28T07:15:35;37.15;;;18.20;;
45893;SDS011;31603;51.148;16.932;2023-02-28T07:18:02;34.67;;;18.10;;
45893;SDS011;31603;51.148;16.932;2023-02-28T07:20:29;38.15;;;17.88;;
45893;SDS011;31603;51.148;16.932;2023-02-28T07:22:56;30.55;;;15.52;;
45893;SDS011;31603;51.148;16.932;2023-02-28T07:25:23;35.55;;;16.80;;
45893;SDS011;31603;51.148;16.932;2023-02-28T07:27:51;40.13;;;18.30;;
45893;SDS011;31603;51.148;16.932;2023-02-28T07:30:18;30.17;;;16.05;;
45893;SDS011;31603;51.148;16.932;2023-02-28T07:32:46;27.42;;;13.88;;
45893;SDS011;31603;51.148;16.932;2023-02-28T07:35:13;30.60;;;14.88;;
45893;SDS011;31603;51.148;16.932;2023-02-28T07:37:42;29.83;;;14.90;;
45893;SDS011;31603;51.148;16.932;2023-02-28T07:40:10;29.33;;;14.63;;
45893;SDS011;31603;51.148;16.932;2023-02-28T07:42:38;26.48;;;16.17;;
45893;SDS011;31603;51.148;16.932;2023-02-28T07:45:06;31.02;;;15.68;;
45893;SDS011;31603;51.148;16.932;2023-02-28T07:47:36;29.48;;;14.88;;
45893;SDS011;31603;51.148;16.932;2023-02-28T07:50:05;30.52;;;14.88;;
45893;SDS011;31603;51.148;16.932;2023-02-28T07:52:32;30.73;;;15.32;;
45893;SDS011;31603;51.148;16.932;2023-02-28T07:54:59;30.45;;;14.77;;
45893;SDS011;31603;51.148;16.932;2023-02-28T07:57:25;29.40;;;15.43;;
45893;SDS011;31603;51.148;16.932;2023-02-28T07:59:52;28.38;;;14.68;;
45893;SDS011;31603;51.148;16.932;2023-02-28T08:02:18;29.85;;;15.38;;
45893;SDS011;31603;51.148;16.932;2023-02-28T08:04:45;24.15;;;14.27;;
45893;SDS011;31603;51.148;16.932;2023-02-28T08:07:14;25.33;;;13.20;;
45893;SDS011;31603;51.148;16.932;2023-02-28T08:09:41;25.45;;;14.38;;
45893;SDS011;31603;51.148;16.932;2023-02-28T08:12:08;26.42;;;12.32;;
45893;SDS011;31603;51.148;16.932;2023-02-28T08:14:35;21.60;;;12.70;;
45893;SDS011;31603;51.148;16.932;2023-02-28T08:17:02;26.00;;;13.98;;
45893;SDS011;31603;51.148;16.932;2023-02-28T08:19:29;22.85;;;12.88;;
45893;SDS011;31603;51.148;16.932;2023-02-28T08:21:56;22.67;;;12.05;;
45893;SDS011;31603;51.148;16.932;2023-02-28T08:24:25;21.40;;;13.02;;
45893;SDS011;31603;51.148;16.932;2023-02-28T08:26:52;19.80;;;10.45;;
45893;SDS011;31603;51.148;16.932;2023-02-28T08:29:22;19.85;;;10.68;;
45893;SDS011;31603;51.148;16.932;2023-02-28T08:31:49;21.88;;;11.00;;
45893;SDS011;31603;51.148;16.932;2023-02-28T08:34:29;23.27;;;12.02;;
45893;SDS011;31603;51.148;16.932;2023-02-28T08:36:56;19.42;;;10.52;;
45893;SDS011;31603;51.148;16.932;2023-02-28T08:39:34;21.50;;;11.65;;
45893;SDS011;31603;51.148;16.932;2023-02-28T08:42:01;21.48;;;10.98;;
45893;SDS011;31603;51.148;16.932;2023-02-28T08:44:29;19.65;;;11.20;;
45893;SDS011;31603;51.148;16.932;2023-02-28T08:46:56;18.35;;;10.85;;
45893;SDS011;31603;51.148;16.932;2023-02-28T08:49:23;17.98;;;10.82;;
45893;SDS011;31603;51.148;16.932;2023-02-28T08:51:49;18.55;;;10.80;;
45893;SDS011;31603;51.148;16.932;2023-02-28T08:54:20;15.35;;;8.75;;
45893;SDS011;31603;51.148;16.932;2023-02-28T08:56:49;14.45;;;8.45;;
45893;SDS011;31603;51.148;16.932;2023-02-28T08:59:29;10.68;;;6.88;;
45893;SDS011;31603;51.148;16.932;2023-02-28T09:01:56;12.55;;;6.35;;
45893;SDS011;31603;51.148;16.932;2023-02-28T09:04:24;14.10;;;7.25;;
45893;SDS011;31603;51.148;16.932;2023-02-28T09:06:51;13.48;;;6.70;;
45893;SDS011;31603;51.148;16.932;2023-02-28T09:09:20;11.95;;;6.63;;
45893;SDS011;31603;51.148;16.932;2023-02-28T09:11:46;12.40;;;6.25;;
45893;SDS011;31603;51.148;16.932;2023-02-28T09:14:15;9.93;;;5.47;;
45893;SDS011;31603;51.148;16.932;2023-02-28T09:16:42;12.77;;;5.75;;
45893;SDS011;31603;51.148;16.932;2023-02-28T09:19:10;11.55;;;5.35;;
45893;SDS011;31603;51.148;16.932;2023-02-28T09:21:37;9.18;;;4.95;;
45893;SDS011;31603;51.148;16.932;2023-02-28T09:24:03;9.30;;;5.30;;
45893;SDS011;31603;51.148;16.932;2023-02-28T09:26:31;8.27;;;4.60;;
45893;SDS011;31603;51.148;16.932;2023-02-28T09:28:57;7.10;;;4.93;;
45893;SDS011;31603;51.148;16.932;2023-02-28T09:31:28;12.77;;;6.53;;
45893;SDS011;31603;51.148;16.932;2023-02-28T09:33:56;11.40;;;6.60;;
45893;SDS011;31603;51.148;16.932;2023-02-28T09:36:27;8.43;;;5.15;;
45893;SDS011;31603;51.148;16.932;2023-02-28T09:38:54;8.25;;;4.95;;
45893;SDS011;31603;51.148;16.932;2023-02-28T09:41:23;9.30;;;5.60;;
45893;SDS011;31603;51.148;16.932;2023-02-28T09:43:53;9.40;;;5.73;;
45893;SDS011;31603;51.148;16.932;2023-02-28T09:46:30;8.93;;;5.47;;
45893;SDS011;31603;51.148;16.932;2023-02-28T09:49:00;13.18;;;5.32;;
45893;SDS011;31603;51.148;16.932;2023-02-28T09:51:33;11.52;;;5.53;;
45893;SDS011;31603;51.148;16.932;2023-02-28T09:54:08;10.68;;;6.07;;
45893;SDS011;31603;51.148;16.932;2023-02-28T09:56:44;10.75;;;6.07;;
45893;SDS011;31603;51.148;16.932;2023-02-28T09:59:13;8.27;;;4.95;;
45893;SDS011;31603;51.148;16.932;2023-02-28T10:01:54;9.13;;;5.13;;
45893;SDS011;31603;51.148;16.932;2023-02-28T10:04:32;10.27;;;5.38;;
45893;SDS011;31603;51.148;16.932;2023-02-28T10:07:05;10.75;;;5.72;;
45893;SDS011;31603;51.148;16.932;2023-02-28T10:09:45;11.23;;;6.78;;
45893;SDS011;31603;51.148;16.932;2023-02-28T10:12:14;9.30;;;5.85;;
45893;SDS011;31603;51.148;16.932;2023-02-28T10:14:43;11.05;;;6.28;;
45893;SDS011;31603;51.148;16.932;2023-02-28T10:17:17;8.90;;;6.38;;
45893;SDS011;31603;51.148;16.932;2023-02-28T10:19:49;9.98;;;6.20;;
45893;SDS011;31603;51.148;16.932;2023-02-28T10:22:24;9.80;;;6.28;;
45893;SDS011;31603;51.148;16.932;2023-02-28T10:24:54;10.73;;;6.50;;
45893;SDS011;31603;51.148;16.932;2023-02-28T10:27:25;13.77;;;7.00;;
45893;SDS011;31603;51.148;16.932;2023-02-28T10:29:57;10.00;;;6.18;;
45893;SDS011;31603;51.148;16.932;2023-02-28T10:32:27;11.13;;;6.30;;
45893;SDS011;31603;51.148;16.932;2023-02-28T10:34:57;12.70;;;6.68;;
45893;SDS011;31603;51.148;16.932;2023-02-28T10:37:26;13.02;;;7.93;;
45893;SDS011;31603;51.148;16.932;2023-02-28T10:39:53;14.80;;;8.20;;
45893;SDS011;31603;51.148;16.932;2023-02-28T10:42:21;19.02;;;8.77;;
45893;SDS011;31603;51.148;16.932;2023-02-28T10:45:04;12.75;;;8.32;;
45893;SDS011;31603;51.148;16.932;2023-02-28T10:47:34;14.55;;;8.25;;
45893;SDS011;31603;51.148;16.932;2023-02-28T10:50:08;16.85;;;8.65;;
45893;SDS011;31603;51.148;16.932;2023-02-28T10:52:53;15.02;;;8.43;;
45893;SDS011;31603;51.148;16.932;2023-02-28T10:55:28;17.38;;;8.45;;
45893;SDS011;31603;51.148;16.932;2023-02-28T10:57:55;14.88;;;7.40;;
45893;SDS011;31603;51.148;16.932;2023-02-28T11:00:35;11.90;;;6.47;;
45893;SDS011;31603;51.148;16.932;2023-02-28T11:03:04;9.60;;;6.45;;
45893;SDS011;31603;51.148;16.932;2023-02-28T11:05:50;11.70;;;7.28;;
45893;SDS011;31603;51.148;16.932;2023-02-28T11:08:17;11.70;;;7.03;;
45893;SDS011;31603;51.148;16.932;2023-02-28T11:10:46;12.48;;;7.43;;
45893;SDS011;31603;51.148;16.932;2023-02-28T11:13:16;13.23;;;7.22;;
45893;SDS011;31603;51.148;16.932;2023-02-28T11:15:49;11.00;;;6.47;;
45893;SDS011;31603;51.148;16.932;2023-02-28T11:18:24;10.93;;;6.13;;
45893;SDS011;31603;51.148;16.932;2023-02-28T11:20:55;10.32;;;5.85;;
45893;SDS011;31603;51.148;16.932;2023-02-28T11:23:54;8.85;;;5.97;;
45893;SDS011;31603;51.148;16.932;2023-02-28T11:26:35;11.65;;;5.88;;
45893;SDS011;31603;51.148;16.932;2023-02-28T11:29:11;10.43;;;5.95;;
45893;SDS011;31603;51.148;16.932;2023-02-28T11:31:42;11.07;;;6.35;;
45893;SDS011;31603;51.148;16.932;2023-02-28T11:34:23;21.02;;;12.73;;
45893;SDS011;31603;51.148;16.932;2023-02-28T11:36:51;12.00;;;6.90;;
45893;SDS011;31603;51.148;16.932;2023-02-28T11:39:20;11.63;;;6.88;;
45893;SDS011;31603;51.148;16.932;2023-02-28T11:41:52;13.07;;;6.40;;
45893;SDS011;31603;51.148;16.932;2023-02-28T11:44:31;11.20;;;6.93;;
45893;SDS011;31603;51.148;16.932;2023-02-28T11:47:09;11.27;;;7.22;;
45893;SDS011;31603;51.148;16.932;2023-02-28T11:49:43;10.18;;;6.07;;
45893;SDS011;31603;51.148;16.932;2023-02-28T11:52:21;11.93;;;6.90;;
45893;SDS011;31603;51.148;16.932;2023-02-28T11:55:00;12.50;;;7.30;;
45893;SDS011;31603;51.148;16.932;2023-02-28T11:57:43;11.93;;;6.70;;
45893;SDS011;31603;51.148;16.932;2023-02-28T12:00:29;9.57;;;6.05;;
45893;SDS011;31603;51.148;16.932;2023-02-28T12:03:10;12.38;;;7.20;;
45893;SDS011;31603;51.148;16.932;2023-02-28T12:08:26;14.73;;;7.22;;
45893;SDS011;31603;51.148;16.932;2023-02-28T12:11:12;11.90;;;7.38;;
45893;SDS011;31603;51.148;16.932;2023-02-28T12:13:54;15.77;;;7.53;;
45893;SDS011;31603;51.148;16.932;2023-02-28T12:16:47;13.98;;;7.68;;
45893;SDS011;31603;51.148;16.932;2023-02-28T12:22:09;12.90;;;7.63;;
45893;SDS011;31603;51.148;16.932;2023-02-28T12:24:51;18.73;;;9.07;;
45893;SDS011;31603;51.148;16.932;2023-02-28T12:27:29;12.90;;;8.32;;
45893;SDS011;31603;51.148;16.932;2023-02-28T12:32:30;15.80;;;8.90;;
45893;SDS011;31603;51.148;16.932;2023-02-28T12:35:01;15.80;;;8.82;;
45893;SDS011;31603;51.148;16.932;2023-02-28T12:37:31;16.93;;;9.40;;
45893;SDS011;31603;51.148;16.932;2023-02-28T12:40:06;17.30;;;8.32;;
45893;SDS011;31603;51.148;16.932;2023-02-28T12:42:41;14.25;;;8.10;;
45893;SDS011;31603;51.148;16.932;2023-02-28T12:45:13;14.35;;;8.05;;
45893;SDS011;31603;51.148;16.932;2023-02-28T12:47:46;14.93;;;8.38;;
45893;SDS011;31603;51.148;16.932;2023-02-28T12:50:19;16.33;;;9.32;;
45893;SDS011;31603;51.148;16.932;2023-02-28T12:52:48;14.20;;;8.98;;
45893;SDS011;31603;51.148;16.932;2023-02-28T12:55:48;14.07;;;7.97;;
45893;SDS011;31603;51.148;16.932;2023-02-28T12:58:39;14.32;;;8.45;;
45893;SDS011;31603;51.148;16.932;2023-02-28T13:01:29;16.52;;;7.95;;
45893;SDS011;31603;51.148;16.932;2023-02-28T13:10:11;13.60;;;7.38;;
45893;SDS011;31603;51.148;16.932;2023-02-28T13:12:46;20.35;;;8.00;;
45893;SDS011;31603;51.148;16.932;2023-02-28T13:15:18;23.20;;;9.40;;
45893;SDS011;31603;51.148;16.932;2023-02-28T13:17:49;20.23;;;9.88;;
45893;SDS011;31603;51.148;16.932;2023-02-28T13:20:18;19.33;;;8.95;;
45893;SDS011;31603;51.148;16.932;2023-02-28T13:22:46;19.20;;;11.52;;
45893;SDS011;31603;51.148;16.932;2023-02-28T13:35:12;17.17;;;8.52;;
45893;SDS011;31603;51.148;16.932;2023-02-28T13:38:09;16.50;;;7.53;;
45893;SDS011;31603;51.148;16.932;2023-02-28T13:40:53;18.23;;;7.63;;
45893;SDS011;31603;51.148;16.932;2023-02-28T13:43:20;20.10;;;8.35;;
45893;SDS011;31603;51.148;16.932;2023-02-28T13:46:28;20.60;;;8.60;;
45893;SDS011;31603;51.148;16.932;2023-02-28T13:48:55;12.43;;;7.60;;
45893;SDS011;31603;51.148;16.932;2023-02-28T13:51:48;14.30;;;7.70;;
45893;SDS011;31603;51.148;16.932;2023-02-28T13:54:24;13.70;;;7.82;;
45893;SDS011;31603;51.148;16.932;2023-02-28T13:56:59;12.25;;;8.07;;
45893;SDS011;31603;51.148;16.932;2023-02-28T13:59:36;14.68;;;8.43;;
45893;SDS011;31603;51.148;16.932;2023-02-28T14:02:26;13.82;;;8.18;;
45893;SDS011;31603;51.148;16.932;2023-02-28T14:05:04;12.38;;;6.88;;
45893;SDS011;31603;51.148;16.932;2023-02-28T14:07:40;13.70;;;8.25;;
45893;SDS011;31603;51.148;16.932;2023-02-28T14:10:21;15.00;;;8.18;;
45893;SDS011;31603;51.148;16.932;2023-02-28T14:12:52;12.43;;;8.20;;
45893;SDS011;31603;51.148;16.932;2023-02-28T14:15:41;12.38;;;6.93;;
45893;SDS011;31603;51.148;16.932;2023-02-28T14:18:22;13.23;;;8.05;;
45893;SDS011;31603;51.148;16.932;2023-02-28T14:20:52;14.25;;;8.02;;
45893;SDS011;31603;51.148;16.932;2023-02-28T14:23:41;15.35;;;9.40;;
45893;SDS011;31603;51.148;16.932;2023-02-28T14:30:03;14.10;;;8.10;;
45893;SDS011;31603;51.148;16.932;2023-02-28T14:32:41;16.77;;;11.23;;
45893;SDS011;31603;51.148;16.932;2023-02-28T14:35:18;15.95;;;9.65;;
45893;SDS011;31603;51.148;16.932;2023-02-28T14:37:55;19.33;;;9.43;;
45893;SDS011;31603;51.148;16.932;2023-02-28T14:43:35;15.30;;;8.30;;
45893;SDS011;31603;51.148;16.932;2023-02-28T14:46:02;15.90;;;9.52;;
45893;SDS011;31603;51.148;16.932;2023-02-28T14:48:39;22.92;;;10.57;;
45893;SDS011;31603;51.148;16.932;2023-02-28T14:51:06;16.40;;;11.35;;
45893;SDS011;31603;51.148;16.932;2023-02-28T14:53:46;17.20;;;11.35;;
45893;SDS011;31603;51.148;16.932;2023-02-28T14:56:22;16.35;;;10.50;;
45893;SDS011;31603;51.148;16.932;2023-02-28T14:58:53;15.48;;;8.27;;
45893;SDS011;31603;51.148;16.932;2023-02-28T15:01:25;14.07;;;7.78;;
45893;SDS011;31603;51.148;16.932;2023-02-28T15:04:00;16.30;;;9.93;;
45893;SDS011;31603;51.148;16.932;2023-02-28T15:06:28;21.15;;;14.45;;
45893;SDS011;31603;51.148;16.932;2023-02-28T15:09:08;16.85;;;10.85;;
45893;SDS011;31603;51.148;16.932;2023-02-28T15:14:15;19.95;;;12.45;;
45893;SDS011;31603;51.148;16.932;2023-02-28T15:16:45;23.83;;;14.82;;
45893;SDS011;31603;51.148;16.932;2023-02-28T15:19:17;26.17;;;16.33;;
45893;SDS011;31603;51.148;16.932;2023-02-28T15:21:50;25.30;;;15.70;;
45893;SDS011;31603;51.148;16.932;2023-02-28T15:24:50;24.42;;;14.77;;